Mostly Cloudy Current Weather (METAR) For Innsbruck - Kranebitten Airport

All times on the weather descriptions are local

Observed at 07:50 - (31 mins ago)

Mostly Cloudy

2°C

Mostly Cloudy
Clouds: Few Clouds at 6,000ft, Scattered Clouds at 10,000ft, Broken Clouds at 30,000ft
Wind: 250° at 06 knots, varying from 180° to 290
Visibility: Greater than 10km
QNH: 1008
Dew Point: 0°C
Runway in Use: Runway 26

Sunrise Today: 07:27
Sunset Today: 17:30

Forecast Weather (TAF) For Innsbruck - Kranebitten Airport

Issued at 01:00 - (20 days ago)


Runway in Use: Unable to determine, wind is clam

Forecast valid until 01:00 on Monday

METAR/TAF RAW METAR / TAF

LOWI 090650Z 25006KT 180V290 9999 FEW060 SCT100 BKN300 02/00 Q1008 WS R26 NOSIG

Weather Widget

Put weather from any of our airports on your website with our weather widget.

Find Another Search

Airport Search


Please Wait Please Wait - Loading
Close
Close

Login

Username:

Password:

Remember Me:

Remember me on this computer

Forgotten your password? Get a reset password sent to your registered e-mail address

Close

User Private Message

Subject:

Message: